createdAt,value
2023-05-17T00:03:14.462Z,100345.77
2023-05-17T00:07:16.135Z,100337.42
2023-05-17T00:11:18.150Z,100339.39
2023-05-17T00:15:19.808Z,100342.72
2023-05-17T00:19:21.436Z,100347.66
2023-05-17T00:23:26.369Z,100345.55
2023-05-17T00:27:27.970Z,100346.59
2023-05-17T00:31:31.351Z,100348.70
2023-05-17T00:35:32.782Z,100348.48
2023-05-17T00:39:36.947Z,100344.34
2023-05-17T00:43:39.760Z,100349.92
2023-05-17T00:47:42.096Z,100345.08
2023-05-17T00:51:51.780Z,100349.47
2023-05-17T00:55:54.840Z,100349.42
2023-05-17T01:00:02.992Z,100345.00
2023-05-17T01:04:06.878Z,100345.64
2023-05-17T01:08:08.543Z,100350.23
2023-05-17T01:12:28.439Z,100348.69
2023-05-17T01:16:44.978Z,100351.00
2023-05-17T01:20:52.211Z,100346.14
2023-05-17T01:25:37.587Z,100351.58
2023-05-17T01:29:43.754Z,100360.05
2023-05-17T01:33:46.299Z,100362.71
2023-05-17T01:37:48.420Z,100368.14
2023-05-17T01:42:06.806Z,100370.30
2023-05-17T01:46:41.189Z,100383.86
2023-05-17T01:50:47.044Z,100388.86
2023-05-17T01:55:18.600Z,100394.82
2023-05-17T01:59:24.762Z,100399.95
2023-05-17T02:03:29.702Z,100403.31
2023-05-17T02:07:31.337Z,100409.86
2023-05-17T02:11:33.013Z,100412.36
2023-05-17T02:15:34.649Z,100418.92
2023-05-17T02:19:36.309Z,100418.99
2023-05-17T02:23:38.049Z,100418.65
2023-05-17T02:27:39.765Z,100420.67
2023-05-17T02:31:41.444Z,100421.83
2023-05-17T02:35:43.032Z,100423.98
2023-05-17T02:39:44.654Z,100410.70
2023-05-17T02:43:46.336Z,100404.45
2023-05-17T02:47:47.984Z,100406.20
2023-05-17T02:51:49.844Z,100410.09
2023-05-17T02:55:51.828Z,100412.88
2023-05-17T02:59:53.403Z,100418.73
2023-05-17T03:03:55.200Z,100425.95
2023-05-17T03:07:57.265Z,100433.48
2023-05-17T03:11:59.102Z,100440.48
2023-05-17T03:16:00.963Z,100449.08
2023-05-17T03:20:03.733Z,100455.70
2023-05-17T03:24:06.052Z,100455.36
2023-05-17T03:28:07.801Z,100456.67
2023-05-17T03:32:09.566Z,100459.14
2023-05-17T03:36:11.441Z,100465.13
2023-05-17T03:40:50.081Z,100468.63
2023-05-17T03:44:52.994Z,100476.20
2023-05-17T03:48:56.336Z,100478.14
2023-05-17T03:52:59.479Z,100484.65
2023-05-17T03:57:03.474Z,100488.10
2023-05-17T04:05:51.371Z,100499.58
2023-05-17T04:10:00.000Z,100501.38
2023-05-17T04:14:03.065Z,100498.02
2023-05-17T04:18:05.818Z,100499.30
2023-05-17T04:22:08.694Z,100497.75
2023-05-17T04:26:10.737Z,100503.98
2023-05-17T04:30:12.875Z,100514.65
2023-05-17T04:34:14.370Z,100512.65
2023-05-17T04:38:39.567Z,100516.94
2023-05-17T04:42:50.998Z,100525.00
2023-05-17T04:47:37.068Z,100525.00
2023-05-17T05:11:28.044Z,100553.29
2023-05-17T05:15:34.611Z,100559.51
2023-05-17T05:19:37.592Z,100560.23
2023-05-17T05:23:40.338Z,100558.23
2023-05-17T05:27:43.397Z,100558.58
2023-05-17T05:31:46.992Z,100554.57
2023-05-17T05:36:02.128Z,100550.29
2023-05-17T05:44:25.210Z,100561.10
2023-05-17T05:48:27.983Z,100561.35
2023-05-17T05:52:29.448Z,100559.39
2023-05-17T05:56:31.525Z,100559.03
2023-05-17T06:00:33.804Z,100565.05
2023-05-17T06:04:44.555Z,100569.86
2023-05-17T06:08:57.065Z,100570.38
2023-05-17T06:13:01.115Z,100575.59
2023-05-17T06:17:02.660Z,100588.05
2023-05-17T06:21:04.111Z,100597.41
2023-05-17T06:25:05.885Z,100611.06
2023-05-17T06:29:07.510Z,100611.31
2023-05-17T06:33:09.248Z,100613.20
2023-05-17T06:37:10.709Z,100624.27
2023-05-17T06:41:12.070Z,100622.95
2023-05-17T06:45:13.973Z,100627.30
2023-05-17T06:49:15.601Z,100635.94
2023-05-17T06:53:17.157Z,100643.82
2023-05-17T06:57:20.348Z,100646.75
2023-05-17T07:01:21.781Z,100645.33
2023-05-17T07:05:23.749Z,100646.66
2023-05-17T07:09:25.361Z,100644.13
2023-05-17T07:14:18.133Z,100649.69
2023-05-17T07:18:19.671Z,100654.41
2023-05-17T07:22:21.233Z,100655.50
2023-05-17T07:26:23.514Z,100654.16
2023-05-17T07:30:25.748Z,100653.34
2023-05-17T07:34:55.988Z,100652.90
2023-05-17T07:39:01.878Z,100645.98
2023-05-17T07:43:03.758Z,100645.06
2023-05-17T07:47:05.643Z,100642.20
2023-05-17T07:51:07.137Z,100643.73
2023-05-17T07:55:09.566Z,100653.77
2023-05-17T07:59:25.016Z,100663.02
2023-05-17T08:03:28.024Z,100666.27
2023-05-17T08:07:30.264Z,100668.00
2023-05-17T08:11:35.067Z,100667.87
2023-05-17T08:15:37.708Z,100669.45
2023-05-17T08:19:40.896Z,100672.83
2023-05-17T08:23:44.399Z,100667.90
2023-05-17T08:28:07.090Z,100670.95
2023-05-17T08:32:09.588Z,100673.37
2023-05-17T08:36:14.357Z,100669.34
2023-05-17T08:40:20.006Z,100674.34
2023-05-17T08:44:22.779Z,100674.81
2023-05-17T08:48:36.266Z,100678.90
2023-05-17T08:52:59.883Z,100671.67
2023-05-17T08:57:04.112Z,100675.95
2023-05-17T09:01:08.071Z,100676.65
2023-05-17T09:05:11.628Z,100683.83
2023-05-17T09:19:45.184Z,100684.33
2023-05-17T09:24:01.753Z,100673.86
2023-05-17T09:28:12.235Z,100672.77
2023-05-17T09:32:44.473Z,100670.75
2023-05-17T09:36:46.203Z,100665.77
2023-05-17T09:40:48.482Z,100666.64
2023-05-17T09:44:50.000Z,100673.99
2023-05-17T09:48:55.739Z,100674.52
2023-05-17T09:52:57.213Z,100675.74
2023-05-17T09:57:26.160Z,100671.40
2023-05-17T10:01:31.768Z,100671.91
2023-05-17T10:05:33.634Z,100666.02
2023-05-17T10:09:38.756Z,100672.41
2023-05-17T10:13:49.793Z,100666.98
2023-05-17T10:17:52.059Z,100662.16
2023-05-17T10:22:21.635Z,100667.40
2023-05-17T10:30:51.194Z,100677.56
2023-05-17T10:35:09.292Z,100682.91
2023-05-17T10:39:34.623Z,100684.47
2023-05-17T10:43:38.652Z,100683.87
2023-05-17T10:47:46.230Z,100678.00
2023-05-17T10:51:48.518Z,100682.88
2023-05-17T10:55:53.080Z,100676.39
2023-05-17T11:00:03.152Z,100679.50
2023-05-17T11:04:26.445Z,100679.27
2023-05-17T11:08:28.710Z,100679.09
2023-05-17T11:12:43.264Z,100677.42
2023-05-17T11:16:46.098Z,100675.02
2023-05-17T11:21:07.180Z,100676.96
2023-05-17T11:25:14.403Z,100678.74
2023-05-17T11:29:17.334Z,100677.44
2023-05-17T11:33:33.606Z,100683.14
2023-05-17T11:37:36.653Z,100682.23
2023-05-17T11:41:47.411Z,100683.69
2023-05-17T11:45:57.852Z,100683.17
2023-05-17T11:50:02.384Z,100682.70
2023-05-17T11:54:26.007Z,100687.04
2023-05-17T12:02:44.275Z,100696.88
2023-05-17T12:06:46.487Z,100695.21
2023-05-17T12:10:52.235Z,100691.71
2023-05-17T12:14:54.194Z,100688.28
2023-05-17T12:18:58.053Z,100691.15
2023-05-17T12:23:00.254Z,100685.66
2023-05-17T12:27:02.473Z,100687.66
2023-05-17T12:31:08.855Z,100684.41
2023-05-17T12:35:17.709Z,100681.92
2023-05-17T12:39:23.879Z,100689.88
2023-05-17T12:43:26.348Z,100686.01
2023-05-17T12:47:32.827Z,100690.78
2023-05-17T12:52:05.305Z,100689.11
2023-05-17T12:56:08.323Z,100685.73
2023-05-17T13:00:11.300Z,100685.70
2023-05-17T13:04:18.810Z,100681.95
2023-05-17T13:08:24.286Z,100687.02
2023-05-17T13:12:26.462Z,100688.59
2023-05-17T13:16:31.827Z,100697.05
2023-05-17T13:20:33.831Z,100696.93
2023-05-17T13:24:56.113Z,100692.69
2023-05-17T13:28:58.895Z,100690.84
2023-05-17T13:33:01.608Z,100689.91
2023-05-17T13:37:06.303Z,100691.98
2023-05-17T13:41:10.153Z,100688.83
2023-05-17T13:45:13.186Z,100691.89
2023-05-17T13:49:15.891Z,100706.12
2023-05-17T13:53:18.893Z,100713.56
2023-05-17T13:57:21.536Z,100713.02
2023-05-17T14:01:23.901Z,100712.67
2023-05-17T14:05:29.605Z,100713.03
2023-05-17T14:09:51.553Z,100719.50
2023-05-17T14:14:29.766Z,100715.11
2023-05-17T14:18:53.106Z,100709.30
2023-05-17T14:23:04.910Z,100724.92
2023-05-17T14:27:07.215Z,100725.39
2023-05-17T14:31:10.403Z,100730.98
2023-05-17T14:35:15.372Z,100738.98
2023-05-17T14:39:17.967Z,100739.95
2023-05-17T14:43:41.232Z,100741.79
2023-05-17T14:47:45.410Z,100745.13
2023-05-17T14:51:49.334Z,100752.09
2023-05-17T15:01:05.337Z,100755.71
2023-05-17T15:06:04.198Z,100759.91
2023-05-17T15:10:12.727Z,100755.75
2023-05-17T15:14:21.503Z,100753.14
2023-05-17T15:18:23.433Z,100760.08
2023-05-17T15:22:28.776Z,100762.29
2023-05-17T15:26:30.250Z,100764.65
2023-05-17T15:30:31.597Z,100767.91
2023-05-17T15:34:33.179Z,100770.42
2023-05-17T15:38:35.113Z,100779.90
2023-05-17T15:42:39.816Z,100781.11
2023-05-17T15:46:41.236Z,100782.92
2023-05-17T15:50:43.517Z,100788.04
2023-05-17T15:54:47.812Z,100790.77
2023-05-17T15:58:49.541Z,100795.93
2023-05-17T16:12:04.956Z,100803.02
2023-05-17T16:25:59.000Z,100826.52
2023-05-17T16:30:03.436Z,100827.96
2023-05-17T17:00:30.726Z,100849.39
2023-05-17T17:04:32.423Z,100848.95
2023-05-17T17:08:33.845Z,100849.81
2023-05-17T17:12:35.613Z,100853.20
2023-05-17T17:16:39.766Z,100850.46
2023-05-17T17:20:41.250Z,100851.59
2023-05-17T17:24:43.913Z,100858.45
2023-05-17T17:29:13.176Z,100862.10
2023-05-17T17:33:14.922Z,100869.31
2023-05-17T17:37:16.545Z,100867.60
2023-05-17T17:41:18.349Z,100866.45
2023-05-17T17:45:20.224Z,100863.92
2023-05-17T17:49:23.683Z,100872.44
2023-05-17T17:53:26.461Z,100881.25
2023-05-17T17:57:33.884Z,100886.30
2023-05-17T18:07:49.664Z,100886.28
2023-05-17T18:17:33.948Z,100891.50
2023-05-17T18:21:36.881Z,100901.17
2023-05-17T18:25:39.905Z,100911.96
2023-05-17T18:29:42.988Z,100919.35
2023-05-17T18:33:46.151Z,100921.27
2023-05-17T18:38:14.793Z,100925.19
2023-05-17T18:42:17.598Z,100935.95
2023-05-17T18:46:20.644Z,100940.71
2023-05-17T18:50:32.695Z,100944.08
2023-05-17T18:54:35.447Z,100950.42
2023-05-17T18:58:38.805Z,100954.95
2023-05-17T19:02:42.126Z,100963.42
2023-05-17T19:06:46.953Z,100967.52
2023-05-17T19:10:50.167Z,100969.53
2023-05-17T19:14:53.322Z,100978.10
2023-05-17T19:18:56.649Z,100985.52
2023-05-17T19:23:00.836Z,100988.42
2023-05-17T19:27:05.140Z,100987.10
2023-05-17T19:31:10.729Z,100980.81
2023-05-17T19:35:13.827Z,100980.84
2023-05-17T19:39:19.640Z,100976.63
2023-05-17T19:43:22.638Z,100982.02
2023-05-17T19:47:25.516Z,100984.82
2023-05-17T19:51:28.636Z,100987.83
2023-05-17T19:55:31.596Z,100993.23
2023-05-17T19:59:34.739Z,100997.63
2023-05-17T20:03:37.755Z,101004.20
2023-05-17T20:07:40.883Z,101007.51
2023-05-17T20:11:43.995Z,101002.50
2023-05-17T20:15:46.952Z,101002.16
2023-05-17T20:19:51.296Z,101005.41
2023-05-17T20:24:01.167Z,101009.53
2023-05-17T20:28:04.259Z,101016.09
2023-05-17T20:32:07.507Z,101020.64
2023-05-17T20:36:14.162Z,101030.07
2023-05-17T20:40:17.322Z,101035.13
2023-05-17T20:44:21.845Z,101038.78
2023-05-17T20:48:24.996Z,101043.77
2023-05-17T20:52:38.905Z,101053.01
2023-05-17T20:56:42.737Z,101053.16
2023-05-17T21:00:45.640Z,101039.03
2023-05-17T21:04:48.659Z,101031.11
2023-05-17T21:08:54.793Z,101028.23
2023-05-17T21:12:57.767Z,101031.95
2023-05-17T21:17:02.484Z,101040.17
2023-05-17T21:21:05.662Z,101046.75
2023-05-17T21:25:09.082Z,101054.77
2023-05-17T21:29:12.070Z,101063.43
2023-05-17T21:33:14.852Z,101065.12
2023-05-17T21:37:17.789Z,101073.70
2023-05-17T21:41:21.692Z,101069.20
2023-05-17T21:45:24.793Z,101064.43
2023-05-17T21:49:28.717Z,101066.00
2023-05-17T21:53:31.710Z,101062.10
2023-05-17T21:57:36.620Z,101056.27
2023-05-17T22:01:39.685Z,101062.44
2023-05-17T22:05:42.717Z,101058.35
2023-05-17T22:09:46.756Z,101054.73
2023-05-17T22:13:50.586Z,101058.42
2023-05-17T22:17:54.483Z,101066.30
2023-05-17T22:21:57.393Z,101072.29
2023-05-17T22:26:00.704Z,101080.17
2023-05-17T22:30:04.381Z,101077.65
2023-05-17T22:34:07.316Z,101080.08
2023-05-17T22:38:10.427Z,101075.88
2023-05-17T22:42:13.408Z,101071.05
2023-05-17T22:46:17.244Z,101075.77
2023-05-17T22:50:20.402Z,101078.21
2023-05-17T22:54:23.343Z,101077.72
2023-05-17T22:58:26.491Z,101078.67
2023-05-17T23:02:29.695Z,101083.73
2023-05-17T23:06:34.383Z,101086.30
2023-05-17T23:10:37.977Z,101092.27
2023-05-17T23:14:40.912Z,101094.15
2023-05-17T23:18:44.534Z,101092.79
2023-05-17T23:22:50.041Z,101097.25
2023-05-17T23:26:52.969Z,101101.08
2023-05-17T23:30:55.885Z,101103.83
2023-05-17T23:35:03.396Z,101111.99
2023-05-17T23:39:06.577Z,101115.04
2023-05-17T23:43:10.393Z,101113.38
2023-05-17T23:47:13.254Z,101110.16
2023-05-17T23:51:20.455Z,101114.13
2023-05-17T23:55:23.396Z,101114.55
2023-05-17T23:59:26.301Z,101116.39
